createdAt,value
2023-02-15T00:01:43.414Z,20.67
2023-02-15T00:04:10.804Z,19.38
2023-02-15T00:06:37.228Z,20.30
2023-02-15T00:09:04.071Z,20.27
2023-02-15T00:11:51.077Z,21.25
2023-02-15T00:14:21.474Z,20.17
2023-02-15T00:16:49.452Z,20.13
2023-02-15T00:19:20.848Z,22.95
2023-02-15T00:21:48.635Z,19.85
2023-02-15T00:24:16.865Z,21.38
2023-02-15T00:26:44.476Z,20.00
2023-02-15T00:29:12.181Z,20.80
2023-02-15T00:31:38.926Z,20.52
2023-02-15T00:34:18.842Z,21.95
2023-02-15T00:36:45.862Z,22.13
2023-02-15T00:39:15.408Z,22.35
2023-02-15T00:41:42.353Z,22.05
2023-02-15T00:44:09.006Z,21.58
2023-02-15T00:46:35.913Z,21.60
2023-02-15T00:49:02.711Z,21.88
2023-02-15T00:51:29.529Z,22.00
2023-02-15T00:53:56.147Z,22.42
2023-02-15T00:56:23.101Z,21.63
2023-02-15T00:58:49.504Z,21.63
2023-02-15T01:01:18.857Z,22.30
2023-02-15T01:03:47.341Z,22.52
2023-02-15T01:06:15.445Z,22.13
2023-02-15T01:08:45.262Z,23.25
2023-02-15T01:11:15.462Z,21.73
2023-02-15T01:13:42.635Z,21.60
2023-02-15T01:16:09.591Z,23.40
2023-02-15T01:18:36.885Z,22.05
2023-02-15T01:21:30.114Z,22.60
2023-02-15T01:23:56.523Z,22.98
2023-02-15T01:26:22.965Z,23.63
2023-02-15T01:28:49.548Z,23.10
2023-02-15T01:31:19.274Z,22.83
2023-02-15T01:33:46.908Z,22.10
2023-02-15T01:36:14.173Z,23.58
2023-02-15T01:38:40.942Z,22.40
2023-02-15T01:41:27.070Z,23.75
2023-02-15T01:44:01.963Z,23.45
2023-02-15T01:46:36.444Z,22.63
2023-02-15T01:49:26.841Z,23.27
2023-02-15T01:51:53.796Z,24.48
2023-02-15T01:54:27.082Z,23.25
2023-02-15T01:56:57.352Z,23.45
2023-02-15T01:59:25.563Z,22.92
2023-02-15T02:01:58.815Z,23.65
2023-02-15T02:04:51.523Z,23.60
2023-02-15T02:07:21.980Z,23.80
2023-02-15T02:09:49.146Z,24.08
2023-02-15T02:12:18.764Z,21.60
2023-02-15T02:14:47.434Z,23.58
2023-02-15T02:17:23.035Z,23.83
2023-02-15T02:20:16.409Z,24.45
2023-02-15T02:23:14.329Z,24.05
2023-02-15T02:26:24.947Z,25.13
2023-02-15T02:29:19.418Z,23.90
2023-02-15T02:32:04.838Z,24.25
2023-02-15T02:34:39.059Z,24.48
2023-02-15T02:37:35.791Z,25.10
2023-02-15T02:40:29.745Z,23.63
2023-02-15T02:43:06.614Z,24.40
2023-02-15T02:45:40.735Z,23.17
2023-02-15T02:48:14.001Z,22.52
2023-02-15T02:50:41.816Z,23.98
2023-02-15T02:53:12.040Z,24.60
2023-02-15T02:55:45.894Z,22.08
2023-02-15T02:58:21.579Z,24.52
2023-02-15T03:00:54.472Z,25.15
2023-02-15T03:03:30.919Z,24.33
2023-02-15T03:06:05.922Z,24.80
2023-02-15T03:08:43.312Z,24.55
2023-02-15T03:11:10.169Z,24.48
2023-02-15T03:13:36.665Z,24.27
2023-02-15T03:16:26.325Z,24.42
2023-02-15T03:18:58.754Z,24.10
2023-02-15T03:21:32.104Z,23.00
2023-02-15T03:24:05.552Z,24.45
2023-02-15T03:26:35.177Z,25.40
2023-02-15T03:29:04.668Z,25.73
2023-02-15T03:31:36.346Z,23.50
2023-02-15T03:34:07.329Z,25.30
2023-02-15T03:36:45.840Z,24.45
2023-02-15T03:39:19.784Z,23.80
2023-02-15T03:41:58.046Z,25.00
2023-02-15T03:44:30.170Z,24.10
2023-02-15T03:47:14.011Z,24.15
2023-02-15T03:49:49.511Z,23.92
2023-02-15T03:52:17.324Z,23.90
2023-02-15T03:54:44.593Z,23.92
2023-02-15T03:57:41.783Z,24.25
2023-02-15T04:00:36.836Z,23.88
2023-02-15T04:03:29.857Z,22.98
2023-02-15T04:05:56.312Z,23.13
2023-02-15T04:08:42.800Z,24.23
2023-02-15T04:11:09.322Z,23.83
2023-02-15T04:13:36.648Z,23.10
2023-02-15T04:16:07.077Z,24.55
2023-02-15T04:19:00.006Z,25.77
2023-02-15T04:21:46.749Z,24.27
2023-02-15T04:24:33.194Z,25.15
2023-02-15T04:27:00.411Z,25.13
2023-02-15T04:29:28.241Z,23.67
2023-02-15T04:31:56.720Z,25.60
2023-02-15T04:34:23.432Z,25.10
2023-02-15T04:36:51.094Z,25.58
2023-02-15T04:39:18.869Z,25.88
2023-02-15T04:41:45.553Z,24.27
2023-02-15T04:44:12.313Z,24.27
2023-02-15T04:46:38.743Z,24.15
2023-02-15T04:49:05.139Z,25.23
2023-02-15T04:51:31.916Z,24.52
2023-02-15T04:53:58.324Z,24.38
2023-02-15T04:56:25.261Z,24.67
2023-02-15T04:58:51.689Z,24.05
2023-02-15T05:01:18.342Z,24.70
2023-02-15T05:03:44.778Z,24.80
2023-02-15T05:06:11.727Z,24.10
2023-02-15T05:08:38.216Z,25.25
2023-02-15T05:11:05.145Z,23.70
2023-02-15T05:13:31.945Z,24.73
2023-02-15T05:15:58.406Z,25.48
2023-02-15T05:18:24.862Z,25.58
2023-02-15T05:20:51.413Z,25.05
2023-02-15T05:23:17.835Z,25.50
2023-02-15T05:26:09.970Z,23.40
2023-02-15T05:28:37.600Z,23.95
2023-02-15T05:31:08.073Z,24.80
2023-02-15T05:33:35.076Z,24.45
2023-02-15T05:36:02.637Z,23.83
2023-02-15T05:38:29.335Z,25.23
2023-02-15T05:40:55.879Z,24.38
2023-02-15T05:43:23.173Z,24.17
2023-02-15T05:45:54.386Z,24.23
2023-02-15T05:48:22.487Z,24.92
2023-02-15T05:51:01.772Z,25.30
2023-02-15T05:53:29.328Z,24.77
2023-02-15T05:56:00.277Z,24.65
2023-02-15T05:58:28.231Z,26.00
2023-02-15T06:00:54.738Z,25.90
2023-02-15T06:03:21.727Z,25.55
2023-02-15T06:05:48.286Z,25.25
2023-02-15T06:08:14.660Z,25.80
2023-02-15T06:10:41.115Z,24.52
2023-02-15T06:13:07.693Z,24.25
2023-02-15T06:15:34.368Z,24.63
2023-02-15T06:18:01.402Z,25.42
2023-02-15T06:20:27.855Z,24.88
2023-02-15T06:22:54.274Z,24.08
2023-02-15T06:25:20.759Z,23.55
2023-02-15T06:27:47.179Z,24.40
2023-02-15T06:30:14.309Z,23.92
2023-02-15T06:32:41.448Z,23.27
2023-02-15T06:35:08.299Z,24.52
2023-02-15T06:37:34.700Z,24.27
2023-02-15T06:40:03.648Z,24.60
2023-02-15T06:42:30.854Z,25.42
2023-02-15T06:44:57.358Z,24.55
2023-02-15T06:47:23.839Z,26.67
2023-02-15T06:49:50.214Z,23.75
2023-02-15T06:52:16.620Z,24.70
2023-02-15T06:54:43.008Z,24.92
2023-02-15T06:57:10.409Z,24.17
2023-02-15T06:59:36.972Z,22.60
2023-02-15T07:02:03.448Z,23.40
2023-02-15T07:04:30.923Z,23.98
2023-02-15T07:06:57.413Z,23.52
2023-02-15T07:09:24.170Z,23.25
2023-02-15T07:12:09.504Z,24.23
2023-02-15T07:14:36.276Z,22.77
2023-02-15T07:17:02.815Z,23.02
2023-02-15T07:19:29.231Z,23.08
2023-02-15T07:21:55.654Z,23.23
2023-02-15T07:24:22.102Z,23.08
2023-02-15T07:26:48.493Z,22.63
2023-02-15T07:29:15.363Z,23.30
2023-02-15T07:31:43.054Z,22.88
2023-02-15T07:34:09.586Z,21.08
2023-02-15T07:36:36.047Z,22.92
2023-02-15T07:39:02.655Z,23.38
2023-02-15T07:41:29.152Z,22.35
2023-02-15T07:43:55.558Z,23.52
2023-02-15T07:46:22.453Z,20.58
2023-02-15T07:48:48.945Z,21.83
2023-02-15T07:51:15.797Z,21.88
2023-02-15T07:53:42.779Z,21.30
2023-02-15T07:56:14.302Z,21.38
2023-02-15T07:58:53.105Z,22.00
2023-02-15T08:01:25.792Z,21.88
2023-02-15T08:03:53.442Z,22.00
2023-02-15T08:06:22.462Z,21.55
2023-02-15T08:08:48.937Z,22.08
2023-02-15T08:11:35.527Z,22.95
2023-02-15T08:14:03.484Z,21.25
2023-02-15T08:16:46.192Z,20.80
2023-02-15T08:19:21.135Z,21.50
2023-02-15T08:21:54.332Z,20.65
2023-02-15T08:24:23.374Z,20.75
2023-02-15T08:26:50.520Z,20.38
2023-02-15T08:29:19.509Z,19.80
2023-02-15T08:31:48.762Z,20.55
2023-02-15T08:34:18.534Z,20.40
2023-02-15T08:36:48.648Z,20.13
2023-02-15T08:39:15.832Z,20.95
2023-02-15T08:41:47.512Z,20.02
2023-02-15T08:44:16.511Z,21.25
2023-02-15T08:46:44.906Z,22.02
2023-02-15T08:49:14.568Z,21.88
2023-02-15T08:51:41.101Z,21.63
2023-02-15T08:54:10.491Z,19.85
2023-02-15T08:56:39.378Z,19.52
2023-02-15T08:59:06.413Z,20.58
2023-02-15T09:01:34.495Z,19.38
2023-02-15T09:04:05.028Z,19.30
2023-02-15T09:06:32.097Z,20.85
2023-02-15T09:08:58.810Z,19.25
2023-02-15T09:11:27.906Z,18.58
2023-02-15T09:14:03.858Z,20.88
2023-02-15T09:16:32.585Z,19.65
2023-02-15T09:18:59.493Z,18.88
2023-02-15T09:21:27.493Z,18.52
2023-02-15T09:23:58.638Z,19.60
2023-02-15T09:26:25.633Z,18.50
2023-02-15T09:28:56.415Z,19.65
2023-02-15T09:31:26.620Z,19.80
2023-02-15T09:33:53.332Z,20.05
2023-02-15T09:36:28.546Z,20.48
2023-02-15T09:39:16.629Z,19.30
2023-02-15T09:42:10.548Z,18.83
2023-02-15T09:47:42.372Z,18.17
2023-02-15T09:50:32.364Z,17.33
2023-02-15T09:53:30.247Z,18.15
2023-02-15T09:56:20.151Z,18.65
2023-02-15T09:59:12.282Z,16.58
2023-02-15T10:02:07.000Z,17.45
2023-02-15T10:04:48.860Z,17.65
2023-02-15T10:07:37.254Z,17.73
2023-02-15T10:10:41.224Z,15.63
2023-02-15T10:13:34.778Z,17.70
2023-02-15T10:16:35.085Z,16.92
2023-02-15T10:19:11.483Z,18.27
2023-02-15T10:21:49.588Z,18.13
2023-02-15T10:24:48.731Z,17.38
2023-02-15T10:27:22.496Z,17.35
2023-02-15T10:30:10.571Z,16.95
2023-02-15T10:32:53.587Z,15.88
2023-02-15T10:35:43.872Z,16.50
2023-02-15T10:38:30.061Z,16.92
2023-02-15T10:41:35.323Z,17.10
2023-02-15T10:44:23.660Z,16.60
2023-02-15T10:47:14.669Z,17.40
2023-02-15T10:49:57.483Z,17.17
2023-02-15T10:52:36.808Z,17.53
2023-02-15T10:55:14.034Z,17.52
2023-02-15T10:58:03.325Z,16.73
2023-02-15T11:00:47.617Z,16.67
2023-02-15T11:03:34.860Z,16.85
2023-02-15T11:06:15.316Z,15.55
2023-02-15T11:08:47.807Z,18.00
2023-02-15T11:11:36.018Z,16.60
2023-02-15T11:14:12.494Z,16.50
2023-02-15T11:16:45.080Z,16.60
2023-02-15T11:19:17.783Z,17.50
2023-02-15T11:21:47.886Z,17.30
2023-02-15T11:24:19.115Z,17.38
2023-02-15T11:26:52.652Z,18.10
2023-02-15T11:29:37.471Z,16.88
2023-02-15T11:32:24.516Z,16.48
2023-02-15T11:35:13.516Z,17.10
2023-02-15T11:38:15.166Z,17.13
2023-02-15T11:40:57.123Z,16.48
2023-02-15T11:43:35.147Z,16.92
2023-02-15T11:46:01.730Z,16.08
2023-02-15T11:48:31.156Z,16.60
2023-02-15T11:50:58.184Z,17.48
2023-02-15T11:53:28.598Z,15.98
2023-02-15T11:55:56.226Z,15.18
2023-02-15T11:58:45.542Z,14.90
2023-02-15T12:01:33.233Z,13.57
2023-02-15T12:04:06.165Z,15.68
2023-02-15T12:06:47.379Z,14.05
2023-02-15T12:09:35.854Z,15.18
2023-02-15T12:12:23.425Z,13.93
2023-02-15T12:15:01.556Z,14.40
2023-02-15T12:17:31.941Z,14.27
2023-02-15T12:20:02.701Z,13.95
2023-02-15T12:22:33.089Z,12.63
2023-02-15T12:25:02.935Z,13.27
2023-02-15T12:27:33.125Z,13.23
2023-02-15T12:30:17.511Z,13.32
2023-02-15T12:33:17.362Z,13.68
2023-02-15T12:35:45.050Z,13.52
2023-02-15T12:38:11.370Z,12.98
2023-02-15T12:40:40.943Z,13.50
2023-02-15T12:43:26.673Z,12.18
2023-02-15T12:45:54.127Z,12.32
2023-02-15T12:48:21.892Z,11.90
2023-02-15T12:50:58.070Z,11.98
2023-02-15T12:53:35.797Z,12.88
2023-02-15T12:56:04.774Z,12.15
2023-02-15T12:58:33.008Z,11.85
2023-02-15T13:01:22.058Z,13.07
2023-02-15T13:03:59.271Z,11.88
2023-02-15T13:06:27.776Z,12.52
2023-02-15T13:09:07.028Z,12.90
2023-02-15T13:11:35.137Z,12.95
2023-02-15T13:14:04.872Z,12.48
2023-02-15T13:16:35.875Z,12.23
2023-02-15T13:19:13.495Z,12.43
2023-02-15T13:21:44.814Z,11.88
2023-02-15T13:24:28.478Z,10.10
2023-02-15T13:27:14.093Z,8.95
2023-02-15T13:29:45.252Z,10.65
2023-02-15T13:32:37.973Z,13.35
2023-02-15T13:35:08.000Z,14.45
2023-02-15T13:38:03.420Z,13.45
2023-02-15T13:40:58.728Z,13.75
2023-02-15T13:43:59.364Z,13.15
2023-02-15T13:46:31.767Z,13.23
2023-02-15T13:49:14.482Z,13.10
2023-02-15T13:52:09.192Z,13.57
2023-02-15T13:54:47.798Z,12.57
2023-02-15T13:57:37.443Z,11.18
2023-02-15T14:00:24.884Z,13.80
2023-02-15T14:02:56.985Z,13.45
2023-02-15T14:05:37.979Z,13.93
2023-02-15T14:08:26.518Z,14.23
2023-02-15T14:11:30.619Z,13.50
2023-02-15T14:17:05.441Z,14.05
2023-02-15T14:20:00.627Z,12.65
2023-02-15T14:22:36.139Z,13.65
2023-02-15T14:25:38.949Z,12.73
2023-02-15T14:28:13.306Z,11.75
2023-02-15T14:30:43.696Z,11.65
2023-02-15T14:33:22.248Z,13.80
2023-02-15T14:35:49.350Z,11.43
2023-02-15T14:38:34.729Z,13.63
2023-02-15T14:41:21.123Z,11.90
2023-02-15T14:43:50.033Z,11.50
2023-02-15T14:46:46.143Z,12.82
2023-02-15T14:49:25.027Z,13.23
2023-02-15T14:51:51.353Z,13.95
2023-02-15T14:54:17.962Z,13.05
2023-02-15T14:57:07.953Z,12.90
2023-02-15T14:59:53.233Z,12.27
2023-02-15T15:02:24.102Z,12.10
2023-02-15T15:05:01.318Z,12.70
2023-02-15T15:07:37.341Z,12.95
2023-02-15T15:10:16.969Z,12.55
2023-02-15T15:12:45.836Z,12.10
2023-02-15T15:15:44.910Z,12.15
2023-02-15T15:18:44.359Z,12.63
2023-02-15T15:21:10.774Z,13.13
2023-02-15T15:23:40.263Z,12.73
2023-02-15T15:26:23.136Z,13.90
2023-02-15T15:28:49.500Z,13.35
2023-02-15T15:31:54.396Z,13.10
2023-02-15T15:35:01.970Z,12.00
2023-02-15T15:37:46.397Z,12.63
2023-02-15T15:40:35.301Z,12.60
2023-02-15T15:43:10.770Z,11.45
2023-02-15T15:46:06.362Z,11.68
2023-02-15T15:48:37.399Z,11.77
2023-02-15T15:51:20.446Z,12.45
2023-02-15T15:53:53.812Z,12.60
2023-02-15T15:56:33.246Z,11.85
2023-02-15T15:59:03.432Z,10.95
2023-02-15T16:01:35.129Z,12.13
2023-02-15T16:04:01.700Z,11.45
2023-02-15T16:06:30.320Z,12.43
2023-02-15T16:08:56.901Z,11.07
2023-02-15T16:11:27.255Z,11.63
2023-02-15T16:13:54.554Z,12.00
2023-02-15T16:16:24.401Z,12.48
2023-02-15T16:18:52.172Z,11.63
2023-02-15T16:21:27.744Z,12.90
2023-02-15T16:24:23.266Z,14.23
2023-02-15T16:27:04.566Z,15.40
2023-02-15T16:29:34.198Z,15.82
2023-02-15T16:32:25.600Z,15.00
2023-02-15T16:34:59.018Z,12.85
2023-02-15T16:40:01.977Z,13.90
2023-02-15T16:42:28.776Z,13.40
2023-02-15T16:45:08.602Z,13.18
2023-02-15T16:47:42.112Z,13.73
2023-02-15T16:50:19.518Z,13.98
2023-02-15T16:52:46.537Z,14.63
2023-02-15T16:55:22.957Z,14.23
2023-02-15T16:57:50.318Z,13.40
2023-02-15T17:00:23.819Z,13.60
2023-02-15T17:03:01.391Z,14.00
2023-02-15T17:05:33.951Z,14.60
2023-02-15T17:08:03.351Z,14.35
2023-02-15T17:10:31.949Z,13.43
2023-02-15T17:13:10.160Z,13.57
2023-02-15T17:15:39.122Z,13.15
2023-02-15T17:18:11.538Z,13.45
2023-02-15T17:20:42.675Z,14.20
2023-02-15T17:23:36.373Z,13.52
2023-02-15T17:26:16.302Z,13.38
2023-02-15T17:28:48.721Z,12.70
2023-02-15T17:31:18.436Z,13.47
2023-02-15T17:33:45.486Z,12.77
2023-02-15T17:36:22.701Z,12.48
2023-02-15T17:38:58.369Z,12.70
2023-02-15T17:41:34.092Z,12.48
2023-02-15T17:44:02.333Z,13.07
2023-02-15T17:46:35.327Z,12.25
2023-02-15T17:49:02.132Z,13.10
2023-02-15T17:51:28.721Z,12.77
2023-02-15T17:54:13.655Z,13.10
2023-02-15T17:56:40.175Z,11.98
2023-02-15T17:59:11.176Z,12.93
2023-02-15T18:02:03.920Z,12.07
2023-02-15T18:04:50.727Z,12.77
2023-02-15T18:07:38.409Z,11.82
2023-02-15T18:10:43.949Z,11.73
2023-02-15T18:13:10.326Z,12.88
2023-02-15T18:15:36.800Z,12.82
2023-02-15T18:18:04.758Z,12.82
2023-02-15T18:20:36.778Z,11.07
2023-02-15T18:23:03.496Z,12.95
2023-02-15T18:25:29.884Z,12.32
2023-02-15T18:27:56.527Z,12.43
2023-02-15T18:30:26.394Z,13.13
2023-02-15T18:32:56.531Z,11.70
2023-02-15T18:35:25.669Z,12.00
2023-02-15T18:37:53.857Z,11.23
2023-02-15T18:40:24.629Z,11.88
2023-02-15T18:42:51.212Z,11.57
2023-02-15T18:45:21.043Z,11.82
2023-02-15T18:47:48.494Z,11.88
2023-02-15T18:50:20.416Z,12.38
2023-02-15T18:52:50.395Z,11.60
2023-02-15T18:55:21.676Z,11.93
2023-02-15T18:57:49.948Z,13.88
2023-02-15T19:00:17.833Z,12.80
2023-02-15T19:02:44.547Z,12.80
2023-02-15T19:05:11.603Z,13.70
2023-02-15T19:07:38.890Z,13.30
2023-02-15T19:10:08.089Z,13.40
2023-02-15T19:12:35.008Z,14.60
2023-02-15T19:15:02.006Z,13.35
2023-02-15T19:17:28.432Z,14.23
2023-02-15T19:19:54.852Z,13.80
2023-02-15T19:22:26.742Z,12.38
2023-02-15T19:24:54.833Z,12.93
2023-02-15T19:27:35.997Z,13.27
2023-02-15T19:30:13.990Z,13.50
2023-02-15T19:32:40.409Z,13.25
2023-02-15T19:35:13.016Z,12.88
2023-02-15T19:37:42.622Z,14.40
2023-02-15T19:40:19.367Z,14.23
2023-02-15T19:42:45.769Z,13.52
2023-02-15T19:45:31.899Z,13.65
2023-02-15T19:48:01.327Z,13.88
2023-02-15T19:50:33.147Z,14.20
2023-02-15T19:53:01.482Z,13.50
2023-02-15T19:55:30.804Z,13.02
2023-02-15T19:57:58.559Z,13.30
2023-02-15T20:00:27.899Z,12.55
2023-02-15T20:02:55.564Z,13.95
2023-02-15T20:05:23.010Z,14.18
2023-02-15T20:07:52.253Z,18.52
2023-02-15T20:10:20.223Z,25.88
2023-02-15T20:12:47.809Z,25.50
2023-02-15T20:15:23.164Z,24.52
2023-02-15T20:17:50.800Z,17.85
2023-02-15T20:20:20.905Z,16.83
2023-02-15T20:22:50.306Z,21.00
2023-02-15T20:25:21.657Z,22.27
2023-02-15T20:27:48.287Z,23.73
2023-02-15T20:30:21.219Z,18.65
2023-02-15T20:32:48.217Z,17.98
2023-02-15T20:35:20.035Z,16.40
2023-02-15T20:37:48.647Z,16.20
2023-02-15T20:40:25.419Z,15.98
2023-02-15T20:42:51.857Z,15.98
2023-02-15T20:45:24.812Z,14.90
2023-02-15T20:47:52.302Z,15.60
2023-02-15T20:50:29.764Z,15.25
2023-02-15T20:52:57.591Z,16.60
2023-02-15T20:55:30.193Z,18.40
2023-02-15T20:57:57.539Z,17.97
2023-02-15T21:00:29.330Z,15.95
2023-02-15T21:02:59.012Z,18.67
2023-02-15T21:05:28.399Z,17.65
2023-02-15T21:07:55.084Z,17.50
2023-02-15T21:10:25.611Z,17.67
2023-02-15T21:12:52.706Z,20.95
2023-02-15T21:15:41.797Z,27.08
2023-02-15T21:18:18.720Z,24.70
2023-02-15T21:20:48.092Z,22.33
2023-02-15T21:23:16.900Z,17.98
2023-02-15T21:25:44.781Z,17.98
2023-02-15T21:28:17.352Z,17.45
2023-02-15T21:30:43.799Z,17.07
2023-02-15T21:33:10.159Z,16.90
2023-02-15T21:35:37.599Z,15.95
2023-02-15T21:38:04.433Z,17.10
2023-02-15T21:40:32.570Z,17.52
2023-02-15T21:43:18.085Z,17.27
2023-02-15T21:46:16.879Z,16.98
2023-02-15T21:48:43.304Z,18.13
2023-02-15T21:51:28.188Z,16.92
2023-02-15T21:53:54.569Z,15.88
2023-02-15T21:56:22.339Z,15.93
2023-02-15T21:58:48.735Z,16.40
2023-02-15T22:01:24.423Z,15.55
2023-02-15T22:03:53.365Z,17.73
2023-02-15T22:06:21.238Z,16.23
2023-02-15T22:08:50.539Z,16.15
2023-02-15T22:11:20.721Z,16.60
2023-02-15T22:13:48.286Z,16.67
2023-02-15T22:16:17.615Z,17.10
2023-02-15T22:18:44.127Z,16.30
2023-02-15T22:21:11.642Z,16.40
2023-02-15T22:23:38.745Z,16.45
2023-02-15T22:26:08.653Z,14.90
2023-02-15T22:28:38.423Z,16.80
2023-02-15T22:31:10.475Z,16.95
2023-02-15T22:33:37.216Z,16.05
2023-02-15T22:36:04.008Z,17.27
2023-02-15T22:38:30.418Z,16.17
2023-02-15T22:41:03.640Z,17.08
2023-02-15T22:43:38.252Z,16.20
2023-02-15T22:46:08.293Z,17.13
2023-02-15T22:48:35.384Z,17.10
2023-02-15T22:51:02.230Z,17.38
2023-02-15T22:53:28.836Z,17.33
2023-02-15T22:55:56.133Z,16.77
2023-02-15T22:58:26.544Z,17.33
2023-02-15T23:00:53.002Z,18.85
2023-02-15T23:03:24.715Z,18.02
2023-02-15T23:05:52.029Z,18.90
2023-02-15T23:08:18.977Z,18.27
2023-02-15T23:10:49.056Z,18.17
2023-02-15T23:13:25.575Z,16.83
2023-02-15T23:15:55.906Z,18.92
2023-02-15T23:18:31.202Z,19.23
2023-02-15T23:21:00.889Z,18.75
2023-02-15T23:23:36.171Z,18.35
2023-02-15T23:26:04.586Z,19.10
2023-02-15T23:28:35.605Z,18.42
2023-02-15T23:31:02.878Z,17.65
2023-02-15T23:33:34.090Z,18.55
2023-02-15T23:36:00.538Z,19.65
2023-02-15T23:38:32.148Z,19.30
2023-02-15T23:41:19.520Z,18.98
2023-02-15T23:43:50.826Z,19.17
2023-02-15T23:46:24.880Z,19.00
2023-02-15T23:48:53.232Z,18.85
2023-02-15T23:51:21.570Z,18.20
2023-02-15T23:53:47.997Z,19.88
2023-02-15T23:56:15.002Z,18.90
2023-02-15T23:58:44.642Z,19.00
